Latest Weather Observations for Browse Island

IDW60801

Issued at 5:35 am WST Friday 25 April 2014 (issued every 30 minutes, with the page automatically refreshed every 10 minutes)

About weather observations | Map of weather stations | Latest weather observations for WA | Other Formats
Station Details ID: 200784 Name: BROWSE ISLAND Lat: -14.11 Lon: 123.55 Height: 3.7 m
Data from the previous 72 hours. | See also: Recent months for locations in Western Australia
Date/Time
WST
Temp
°C
App
Temp
°C
Dew
Point
Rel
Hum
%
Delta-T
°C
Wind Press
QNH
hPa
Press
MSL
hPa
Rain
since 9 am
mm
Dir
 
Spd
km/h
Gust
km/h
Spd
kts
Gust
kts
25/05:30am 29.0 - - - - S 9 7 5 4 1009.0 - -
25/05:00am 29.0 - - - - S 7 9 4 5 1009.0 1008.9 -
25/04:30am 29.0 - - - - S 9 - 5 - 1008.0 - -
25/04:00am 28.9 - - - - S 7 - 4 - 1008.0 1008.5 -
25/03:30am 29.0 - - - - SSW 11 - 6 - 1008.0 - -
25/03:00am 29.0 - - - - SW 9 - 5 - 1008.0 1008.3 -
25/02:30am 29.0 - - - - SW 9 - 5 - 1008.0 - -
25/02:00am 29.0 - - - - WSW 7 - 4 - 1008.0 1008.1 -
25/01:30am 29.0 - - - - W 9 - 5 - 1008.0 - -
25/01:00am 29.1 - - - - W 11 - 6 - 1008.0 1008.1 -
25/12:30am 29.0 - - - - W 13 - 7 - 1008.0 - -
25/12:00am 29.0 - - - - W 15 - 8 - 1008.0 1008.7 -
 
Date/Time
WST
Temp
°C
App
Temp
°C
Dew
Point
Rel
Hum
%
Delta-T
°C
Wind Press
QNH
hPa
Press
MSL
hPa
Rain
since 9 am
mm
Dir
 
Spd
km/h
Gust
km/h
Spd
kts
Gust
kts
24/11:30pm 29.0 - - - - W 17 - 9 - 1008.0 - -
24/11:00pm 29.1 - - - - W 17 - 9 - 1008.0 1008.8 -
24/10:30pm 29.0 - - - - WNW 15 - 8 - 1009.0 - -
24/10:00pm 29.1 - - - - WNW 13 - 7 - 1009.0 1009.1 -
24/09:30pm 29.0 - - - - W 7 - 4 - 1009.0 - -
24/09:00pm 29.3 - - - - WSW 7 - 4 - 1009.0 1009.6 -
24/08:30pm 29.0 - - - - SSW 4 - 2 - 1009.0 - -
24/08:00pm 29.3 - - - - S 7 - 4 - 1009.0 1009.3 -
24/07:30pm 29.0 - - - - SSW 7 - 4 - 1008.0 - -
24/07:00pm 29.4 - - - - SSW 7 - 4 - 1008.0 1008.6 -
24/06:30pm 29.0 - - - - SSW 9 - 5 - 1008.0 - -
24/06:00pm 29.6 - - - - SSW 9 - 5 - 1008.0 1008.0 -
24/05:30pm 30.0 - - - - SW 9 - 5 - 1007.0 - -
24/05:00pm 29.8 - - - - SSW 9 - 5 - 1007.0 1007.6 -
24/04:30pm 30.0 - - - - SSW 11 - 6 - 1007.0 - -
24/04:00pm 30.2 - - - - SSW 9 - 5 - 1007.0 1007.3 -
24/03:30pm 30.0 - - - - SSW 7 - 4 - 1007.0 - -
24/03:00pm 30.0 - - - - S 11 - 6 - 1007.0 1007.2 -
24/02:30pm 30.0 - - - - S 11 - 6 - 1007.0 - -
24/02:00pm 30.7 - - - - S 9 - 5 - 1007.0 1007.5 -
24/01:30pm 31.0 - - - - S 9 - 5 - 1007.0 - -
24/01:00pm 30.7 - - - - S 7 - 4 - 1008.0 1008.0 -
24/12:30pm 31.0 - - - - S 9 - 5 - 1008.0 - -
24/12:00pm 31.3 - - - - S 11 13 6 7 1008.0 1008.4 -
24/11:30am 30.0 - - - - S 13 - 7 - 1008.0 - -
24/10:30am 30.0 - - - - S 9 - 5 - 1009.0 - -
24/10:00am 29.9 - - - - S 13 - 7 - 1010.0 1010.0 -
24/09:30am 30.0 - - - - S 11 - 6 - 1010.0 - -
24/09:00am 30.1 - - - - SSE 11 - 6 - 1010.0 1010.1 -
24/08:30am 30.0 - - - - S 11 - 6 - 1010.0 - -
24/08:00am 29.5 - - - - S 13 - 7 - 1009.0 1009.8 -
24/07:30am 29.0 - - - - S 11 - 6 - 1009.0 - -
24/07:00am 29.3 - - - - S 13 - 7 - 1009.0 1009.5 -
24/06:30am 29.0 - - - - S 13 - 7 - 1009.0 - -
24/06:00am 29.2 - - - - SSW 15 - 8 - 1009.0 1009.0 -
24/05:30am 29.0 - - - - SSW 13 - 7 - 1008.0 - -
24/05:00am 29.1 - - - - SW 15 - 8 - 1008.0 1008.5 -
24/04:30am 29.0 - - - - SW 15 - 8 - 1008.0 - -
24/04:00am 29.2 - - - - SW 17 - 9 - 1008.0 1008.3 -
24/03:30am 29.0 - - - - SW 17 - 9 - 1008.0 - -
24/03:00am 29.2 - - - - SW 17 - 9 - 1008.0 1008.2 -
24/02:30am 29.0 - - - - WSW 15 - 8 - 1008.0 - -
24/02:00am 29.2 - - - - WSW 15 - 8 - 1008.0 1008.6 -
24/01:30am 29.0 - - - - WSW 13 - 7 - 1009.0 - -
24/01:00am 29.4 - - - - WSW 15 - 8 - 1009.0 1009.2 -
24/12:30am 29.0 - - - - WSW 15 - 8 - 1009.0 - -
24/12:00am 29.3 - - - - W 13 - 7 - 1009.0 1009.7 -
 
Date/Time
WST
Temp
°C
App
Temp
°C
Dew
Point
Rel
Hum
%
Delta-T
°C
Wind Press
QNH
hPa
Press
MSL
hPa
Rain
since 9 am
mm
Dir
 
Spd
km/h
Gust
km/h
Spd
kts
Gust
kts
23/11:30pm 29.0 - - - - WSW 13 - 7 - 1010.0 - -
23/11:00pm 29.5 - - - - WSW 15 - 8 - 1010.0 1010.1 -
23/10:30pm 29.0 - - - - WSW 15 - 8 - 1010.0 - -
23/10:00pm 29.6 - - - - WSW 15 - 8 - 1010.0 1010.6 -
23/09:30pm 30.0 - - - - SW 13 - 7 - 1010.0 - -
23/09:00pm 29.7 - - - - SW 15 - 8 - 1010.0 1010.5 -
23/08:30pm 30.0 - - - - SW 15 - 8 - 1010.0 - -
23/08:00pm 29.9 - - - - SW 19 - 10 - 1010.0 1010.3 -
23/07:30pm 30.0 - - - - SSW 17 - 9 - 1010.0 - -
23/07:00pm 29.8 - - - - SSW 17 - 9 - 1009.0 1009.7 -
23/06:30pm 30.0 - - - - SSW 19 - 10 - 1009.0 - -
23/06:00pm 29.9 - - - - SSW 20 - 11 - 1009.0 1009.0 -
23/05:30pm 30.0 - - - - SSW 19 - 10 - 1008.0 - -
23/05:00pm 30.1 - - - - SSW 19 - 10 - 1008.0 1008.3 -
23/04:30pm 30.0 - - - - SSW 19 - 10 - 1008.0 - -
23/04:00pm 30.0 - - - - SSW 17 - 9 - 1007.0 1007.7 -
23/03:30pm 30.0 - - - - SSW 17 - 9 - 1007.0 - -
23/03:00pm 30.1 - - - - SSW 17 - 9 - 1007.0 1007.4 -
23/02:30pm 30.0 - - - - SSW 17 - 9 - 1007.0 - -
23/02:00pm 30.2 - - - - SSW 15 - 8 - 1007.0 1007.7 -
23/01:30pm 30.0 - - - - SW 13 - 7 - 1008.0 - -
23/01:00pm 30.0 - - - - SW 13 - 7 - 1008.0 1008.5 -
23/12:30pm 30.0 - - - - SW 13 - 7 - 1009.0 - -
23/12:00pm 29.9 - - - - SW 15 - 8 - 1009.0 1009.2 -
23/11:30am 30.0 - - - - SSW 15 - 8 - 1009.0 - -
23/11:00am 29.7 - - - - SSW 15 - 8 - 1010.0 1010.2 -
23/10:30am 30.0 - - - - SSW 15 - 8 - 1010.0 - -
23/10:00am 29.7 - - - - SSW 17 - 9 - 1011.0 1010.9 -
23/09:30am 30.0 - - - - S 17 - 9 - 1011.0 - -
23/09:00am 29.4 - - - - SSW 17 - 9 - 1011.0 1011.3 -
23/08:30am 29.0 - - - - SSW 17 - 9 - 1011.0 - -
23/08:00am 29.5 - - - - S 13 - 7 - 1011.0 1011.3 -
23/07:30am 29.0 - - - - SSW 17 - 9 - 1011.0 - -
23/07:00am 29.3 - - - - SSW 15 - 8 - 1011.0 1011.1 -
23/06:30am 29.0 - - - - SSW 15 - 8 - 1010.0 - -
23/06:00am 29.3 - - - - SW 13 - 7 - 1010.0 1010.4 -
23/05:30am 29.0 - - - - SW 9 - 5 - 1010.0 - -
23/05:00am 29.2 - - - - SW 7 - 4 - 1010.0 1010.0 -
23/04:30am 29.0 - - - - W 6 - 3 - 1010.0 - -
23/04:00am 29.3 - - - - WSW 9 - 5 - 1010.0 1009.9 -
23/03:30am 29.0 - - - - SW 11 - 6 - 1009.0 - -
23/03:00am 29.3 - - - - SW 9 - 5 - 1009.0 1009.8 -
23/02:30am 29.0 - - - - SSW 11 - 6 - 1009.0 - -
23/02:00am 29.3 - - - - SW 11 - 6 - 1010.0 1010.2 -
23/01:30am 30.0 - - - - SW 11 - 6 - 1010.0 - -
23/01:00am 29.5 - - - - SW 15 - 8 - 1010.0 1010.5 -
23/12:30am 30.0 - - - - SW 17 - 9 - 1010.0 - -
23/12:00am 29.5 - - - - SW 17 - 9 - 1011.0 1011.1 -
 
Date/Time
WST
Temp
°C
App
Temp
°C
Dew
Point
Rel
Hum
%
Delta-T
°C
Wind Press
QNH
hPa
Press
MSL
hPa
Rain
since 9 am
mm
Dir
 
Spd
km/h
Gust
km/h
Spd
kts
Gust
kts
22/11:30pm 30.0 - - - - SW 17 - 9 - 1011.0 - -
22/11:00pm 29.6 - - - - SW 15 - 8 - 1011.0 1011.5 -
22/10:30pm 30.0 - - - - SSW 15 - 8 - 1011.0 - -
22/10:00pm 29.6 - - - - SW 13 - 7 - 1011.0 1011.7 -
22/09:30pm 30.0 - - - - SSW 13 - 7 - 1011.0 - -
22/09:00pm 29.8 - - - - SSW 15 - 8 - 1011.0 1011.5 -
22/08:30pm 30.0 - - - - S 15 - 8 - 1011.0 - -
22/08:00pm 30.0 - - - - S 17 - 9 - 1011.0 1011.1 -
22/07:30pm 30.0 - - - - S 17 - 9 - 1010.0 - -
22/07:00pm 30.1 - - - - S 19 - 10 - 1010.0 1010.3 -
22/06:30pm 30.0 - - - - S 19 - 10 - 1010.0 - -
22/06:00pm 30.2 - - - - S 19 - 10 - 1009.0 1009.8 -
22/05:30pm 30.0 - - - - S 20 - 11 - 1009.0 - -
22/05:00pm 30.4 - - - - S 17 - 9 - 1009.0 1009.2 -
22/04:30pm 31.0 - - - - SSE 17 - 9 - 1009.0 - -
22/04:00pm 30.6 - - - - SSE 17 - 9 - 1008.0 1008.8 -
22/03:30pm 31.0 - - - - SSE 17 - 9 - 1008.0 - -
22/03:00pm 30.0 - - - - S 19 - 10 - 1008.0 1008.6 -
22/02:30pm 30.0 - - - - S 17 - 9 - 1008.0 - -
22/02:00pm 30.8 - - - - S 17 - 9 - 1008.0 1008.8 -
22/01:30pm 30.0 - - - - SSE 17 - 9 - 1009.0 - -
22/01:00pm 30.6 - - - - SSE 17 - 9 - 1009.0 1009.4 -
22/12:30pm 30.0 - - - - SSE 19 - 10 - 1010.0 - -
22/12:00pm 30.3 - - - - SSE 20 - 11 - 1010.0 1010.1 -
22/11:30am 31.0 - - - - SSE 20 - 11 - 1010.0 - -
22/11:00am 30.3 - - - - SSE 19 - 10 - 1011.0 1011.2 -
22/10:30am 31.0 - - - - SSE 19 - 10 - 1011.0 - -
22/10:00am 30.1 - - - - SE 17 - 9 - 1011.0 1011.8 -
22/09:30am 30.0 - - - - SSE 15 - 8 - 1012.0 - -
22/09:00am 30.1 - - - - SSE 15 - 8 - 1012.0 1012.0 -
22/08:30am 30.0 - - - - SE 13 - 7 - 1012.0 - -
22/08:00am 30.1 - - - - SE 11 - 6 - 1011.0 1011.8 -
22/07:30am 30.0 - - - - SE 11 - 6 - 1011.0 - -
22/07:00am 29.4 - - - - SE 9 - 5 - 1011.0 1011.6 -
22/06:30am 29.0 - - - - ESE 11 - 6 - 1011.0 - -
22/06:00am 29.1 - - - - ESE 11 - 6 - 1011.0 1011.1 -

Other Formats:

Comma delimited format used in spreadsheet applications
http://www.bom.gov.au/fwo/IDW60801/IDW60801.94103.axf

JavaScript Object Notation format (JSON) in row-major order
http://www.bom.gov.au/fwo/IDW60801/IDW60801.94103.json